Le Ponant — FGZZ — position and weather

sailwx.info

Track history (hours):
 
Tides and Currents Weather Stations Pressure Air Temp Water Temp Dewpoint Dewpoint Depression Visibility Wind Speed Wind Dir Waves Ship Positions

Le Ponant

Operator: Compangy des Iles du Ponant

Last reported at 2015-May-20 16:26 UTC. Time now 2015-May-22 12:57 UTC.
Position N 43°43' E 007°26'.

Length 84 m; draft 4.2 m.

Type: Passenger vessel. MMSI: 227186000.

Date/timePositionNaut miles runAvg speedWind from/ knotsBaromVisibWave heightAir tempDewpointWater temp
2015-May-20 16:26N 43°43' E 007°26'10 9.1
2015-May-20 15:17N 43°36' E 007°16'710.3
2015-May-20 14:33N 43°31' E 007°08'5 5.4
2015-May-20 13:33N 43°33' E 007°01'0 0.0
2015-May-20 09:28N 43°33' E 007°01'0 0.0
2015-May-20 08:28N 43°33' E 007°01'0 0.0
2015-May-20 07:28N 43°33' E 007°01'0 0.0
2015-May-20 06:33N 43°33' E 007°01'3 2.7
2015-May-20 05:32N 43°30' E 007°01'7 7.2
2015-May-20 04:32N 43°31' E 007°11'8 8.1
2015-May-20 03:32N 43°33' E 007°22'6510.7
2015-May-19 21:27N 43°50' E 008°48'1011.2
2015-May-19 20:33N 43°53' E 009°02'1211.7
2015-May-19 19:33N 43°56' E 009°17'1111.5
2015-May-19 18:33N 43°59' E 009°33'1110.8
2015-May-19 17:33N 44°00' E 009°48'4 3.5
2015-May-19 16:29N 44°03' E 009°51'0 0.0
2015-May-19 15:32N 44°03' E 009°51'0 0.0
2015-May-19 14:32N 44°03' E 009°51'0 0.0
2015-May-19 13:29N 44°03' E 009°51'0 0.0
2015-May-19 12:32N 44°03' E 009°51'0 0.0
2015-May-19 11:32N 44°03' E 009°51'0 0.0
2015-May-19 10:32N 44°03' E 009°51'0 0.0
2015-May-19 09:32N 44°03' E 009°51'0 0.0
2015-May-19 08:32N 44°03' E 009°51'0 0.0
2015-May-19 07:29N 44°03' E 009°51'0 0.0
2015-May-19 06:32N 44°03' E 009°51'0 0.3
2015-May-19 05:33N 44°03' E 009°51'4 3.8
2015-May-19 04:33N 44°00' E 009°48'8 8.5
2015-May-19 03:33N 43°59' E 009°37'9 8.6
2015-May-19 02:33N 43°57' E 009°25'10 9.8
2015-May-19 01:33N 43°55' E 009°11'1110.6
2015-May-19 00:33N 43°53' E 008°57'1111.1
2015-May-18 23:33N 43°51' E 008°42'1411.2
2015-May-18 22:19N 43°48' E 008°23'1810.3
2015-May-18 20:32N 43°45' E 007°58'3010.0
2015-May-18 17:33N 43°40' E 007°17'2 2.0
2015-May-18 16:31N 43°42' E 007°17'0 0.0
2015-May-18 15:25N 43°42' E 007°17'0 0.0
2015-May-18 14:13N 43°42' E 007°17'0 0.0
2015-May-18 13:25N 43°42' E 007°17'0 0.0
2015-May-18 12:31N 43°42' E 007°17'0 0.0
2015-May-18 11:31N 43°42' E 007°17'0 0.0
2015-May-18 10:31N 43°42' E 007°17'0 0.0
2015-May-18 07:13N 43°42' E 007°17'0 0.0
2015-May-18 06:31N 43°42' E 007°17'1 1.0
2015-May-18 05:24N 43°41' E 007°17'8 9.2
2015-May-18 04:33N 43°34' E 007°12'8 7.9
2015-May-18 03:30N 43°31' E 007°01'2 1.9
2015-May-18 02:30N 43°33' E 007°01'0 0.0
2015-May-18 01:30N 43°33' E 007°01'0 0.0
2015-May-18 00:30N 43°33' E 007°01'0 0.0
2015-May-17 23:30N 43°33' E 007°01'0 0.0
2015-May-17 22:30N 43°33' E 007°01'0 0.0
2015-May-17 21:30N 43°33' E 007°01'0 0.0
2015-May-17 20:30N 43°33' E 007°01'0 0.0
2015-May-17 19:31N 43°33' E 007°01'3 2.6
2015-May-17 18:32N 43°30' E 006°60'5 0.1
2015-May-15 22:34N 43°30' E 007°07'9 9.3
2015-May-15 21:33N 43°38' E 007°14'5 1.9
2015-May-15 19:11N 43°42' E 007°17'0 0.0
2015-May-15 13:11N 43°42' E 007°17'0 0.0
2015-May-15 12:29N 43°42' E 007°17'0 0.0
2015-May-15 11:17N 43°42' E 007°17'0 0.0
2015-May-14 10:29N 43°42' E 007°17'56 6.1
2015-May-14 01:15N 43°32' E 008°33'7 9.3
2015-May-14 00:32N 43°30' E 008°42'9 8.8
2015-May-13 23:29N 43°26' E 008°54'8 9.0
2015-May-13 22:33N 43°23' E 009°04'10 9.9
2015-May-13 21:33N 43°20' E 009°17'1010.0
2015-May-13 20:33N 43°16' E 009°30'2010.2
2015-May-13 18:33N 43°09' E 009°56'28 6.8
2015-May-13 14:29N 42°48' E 010°21'1 0.1
2015-May-13 05:33N 42°49' E 010°20'7 6.9
2015-May-13 04:33N 42°52' E 010°11'8 8.5
2015-May-13 03:33N 42°48' E 010°01'17 8.1
2015-May-13 01:28N 42°32' E 009°54'3211.0
2015-May-12 22:33N 42°01' E 009°44'1110.9
2015-May-12 21:33N 41°50' E 009°41'  
Track history (hours):
 
Tides and Currents Weather Stations Pressure Air Temp Water Temp Dewpoint Dewpoint Depression Visibility Wind Speed Wind Dir Waves Ship Positions

Le Ponant

Operator: Compangy des Iles du Ponant

Last reported at 2015-May-20 16:26 UTC. Time now 2015-May-22 12:57 UTC.
Position N 43°43' E 007°26'.

Length 84 m; draft 4.2 m.

Type: Passenger vessel. MMSI: 227186000.

Date/timePositionNaut miles runAvg speedWind from/ knotsBaromVisibWave heightAir tempDewpointWater temp
2015-May-20 16:26N 43°43' E 007°26'10 9.1
2015-May-20 15:17N 43°36' E 007°16'710.3
2015-May-20 14:33N 43°31' E 007°08'5 5.4
2015-May-20 13:33N 43°33' E 007°01'0 0.0
2015-May-20 09:28N 43°33' E 007°01'0 0.0
2015-May-20 08:28N 43°33' E 007°01'0 0.0
2015-May-20 07:28N 43°33' E 007°01'0 0.0
2015-May-20 06:33N 43°33' E 007°01'3 2.7
2015-May-20 05:32N 43°30' E 007°01'7 7.2
2015-May-20 04:32N 43°31' E 007°11'8 8.1
2015-May-20 03:32N 43°33' E 007°22'6510.7
2015-May-19 21:27N 43°50' E 008°48'1011.2
2015-May-19 20:33N 43°53' E 009°02'1211.7
2015-May-19 19:33N 43°56' E 009°17'1111.5
2015-May-19 18:33N 43°59' E 009°33'1110.8
2015-May-19 17:33N 44°00' E 009°48'4 3.5
2015-May-19 16:29N 44°03' E 009°51'0 0.0
2015-May-19 15:32N 44°03' E 009°51'0 0.0
2015-May-19 14:32N 44°03' E 009°51'0 0.0
2015-May-19 13:29N 44°03' E 009°51'0 0.0
2015-May-19 12:32N 44°03' E 009°51'0 0.0
2015-May-19 11:32N 44°03' E 009°51'0 0.0
2015-May-19 10:32N 44°03' E 009°51'0 0.0
2015-May-19 09:32N 44°03' E 009°51'0 0.0
2015-May-19 08:32N 44°03' E 009°51'0 0.0
2015-May-19 07:29N 44°03' E 009°51'0 0.0
2015-May-19 06:32N 44°03' E 009°51'0 0.3
2015-May-19 05:33N 44°03' E 009°51'4 3.8
2015-May-19 04:33N 44°00' E 009°48'8 8.5
2015-May-19 03:33N 43°59' E 009°37'9 8.6
2015-May-19 02:33N 43°57' E 009°25'10 9.8
2015-May-19 01:33N 43°55' E 009°11'1110.6
2015-May-19 00:33N 43°53' E 008°57'1111.1
2015-May-18 23:33N 43°51' E 008°42'1411.2
2015-May-18 22:19N 43°48' E 008°23'1810.3
2015-May-18 20:32N 43°45' E 007°58'3010.0
2015-May-18 17:33N 43°40' E 007°17'2 2.0
2015-May-18 16:31N 43°42' E 007°17'0 0.0
2015-May-18 15:25N 43°42' E 007°17'0 0.0
2015-May-18 14:13N 43°42' E 007°17'0 0.0
2015-May-18 13:25N 43°42' E 007°17'0 0.0
2015-May-18 12:31N 43°42' E 007°17'0 0.0
2015-May-18 11:31N 43°42' E 007°17'0 0.0
2015-May-18 10:31N 43°42' E 007°17'0 0.0
2015-May-18 07:13N 43°42' E 007°17'0 0.0
2015-May-18 06:31N 43°42' E 007°17'1 1.0
2015-May-18 05:24N 43°41' E 007°17'8 9.2
2015-May-18 04:33N 43°34' E 007°12'8 7.9
2015-May-18 03:30N 43°31' E 007°01'2 1.9
2015-May-18 02:30N 43°33' E 007°01'0 0.0
2015-May-18 01:30N 43°33' E 007°01'0 0.0
2015-May-18 00:30N 43°33' E 007°01'0 0.0
2015-May-17 23:30N 43°33' E 007°01'0 0.0
2015-May-17 22:30N 43°33' E 007°01'0 0.0
2015-May-17 21:30N 43°33' E 007°01'0 0.0
2015-May-17 20:30N 43°33' E 007°01'0 0.0
2015-May-17 19:31N 43°33' E 007°01'3 2.6
2015-May-17 18:32N 43°30' E 006°60'5 0.1
2015-May-15 22:34N 43°30' E 007°07'9 9.3
2015-May-15 21:33N 43°38' E 007°14'5 1.9
2015-May-15 19:11N 43°42' E 007°17'0 0.0
2015-May-15 13:11N 43°42' E 007°17'0 0.0
2015-May-15 12:29N 43°42' E 007°17'0 0.0
2015-May-15 11:17N 43°42' E 007°17'0 0.0
2015-May-14 10:29N 43°42' E 007°17'56 6.1
2015-May-14 01:15N 43°32' E 008°33'7 9.3
2015-May-14 00:32N 43°30' E 008°42'9 8.8
2015-May-13 23:29N 43°26' E 008°54'8 9.0
2015-May-13 22:33N 43°23' E 009°04'10 9.9
2015-May-13 21:33N 43°20' E 009°17'1010.0
2015-May-13 20:33N 43°16' E 009°30'2010.2
2015-May-13 18:33N 43°09' E 009°56'28 6.8
2015-May-13 14:29N 42°48' E 010°21'1 0.1
2015-May-13 05:33N 42°49' E 010°20'7 6.9
2015-May-13 04:33N 42°52' E 010°11'8 8.5
2015-May-13 03:33N 42°48' E 010°01'17 8.1
2015-May-13 01:28N 42°32' E 009°54'3211.0
2015-May-12 22:33N 42°01' E 009°44'1110.9
2015-May-12 21:33N 41°50' E 009°41'  

Dump ship's entire track history